sensor_id;sensor_type;location;lat;lon;timestamp;temperature;humidity
12477;DHT22;6303;51.504;6.300;2022-07-06T00:00:00;28.90;46.00
12477;DHT22;6303;51.504;6.300;2022-07-06T00:02:30;28.90;46.00
12477;DHT22;6303;51.504;6.300;2022-07-06T00:04:57;28.90;45.90
12477;DHT22;6303;51.504;6.300;2022-07-06T00:07:26;28.90;45.90
12477;DHT22;6303;51.504;6.300;2022-07-06T00:09:53;28.90;45.90
12477;DHT22;6303;51.504;6.300;2022-07-06T00:12:20;28.90;45.90
12477;DHT22;6303;51.504;6.300;2022-07-06T00:14:47;28.90;45.80
12477;DHT22;6303;51.504;6.300;2022-07-06T00:17:14;28.90;45.70
12477;DHT22;6303;51.504;6.300;2022-07-06T00:19:41;28.90;45.70
12477;DHT22;6303;51.504;6.300;2022-07-06T00:22:08;28.90;45.70
12477;DHT22;6303;51.504;6.300;2022-07-06T00:24:36;28.90;45.90
12477;DHT22;6303;51.504;6.300;2022-07-06T00:27:04;28.90;46.00
12477;DHT22;6303;51.504;6.300;2022-07-06T00:29:31;28.90;46.10
12477;DHT22;6303;51.504;6.300;2022-07-06T00:31:58;28.80;46.00
12477;DHT22;6303;51.504;6.300;2022-07-06T00:34:25;28.80;46.00
12477;DHT22;6303;51.504;6.300;2022-07-06T00:36:52;28.80;46.00
12477;DHT22;6303;51.504;6.300;2022-07-06T00:39:19;28.80;46.00
12477;DHT22;6303;51.504;6.300;2022-07-06T00:41:50;28.80;46.00
12477;DHT22;6303;51.504;6.300;2022-07-06T00:44:17;28.80;46.00
12477;DHT22;6303;51.504;6.300;2022-07-06T00:46:44;28.80;46.10
12477;DHT22;6303;51.504;6.300;2022-07-06T00:49:11;28.80;46.60
12477;DHT22;6303;51.504;6.300;2022-07-06T00:51:59;28.70;45.90
12477;DHT22;6303;51.504;6.300;2022-07-06T00:54:26;28.70;45.90
12477;DHT22;6303;51.504;6.300;2022-07-06T00:56:56;28.70;45.90
12477;DHT22;6303;51.504;6.300;2022-07-06T00:59:24;28.70;45.80
12477;DHT22;6303;51.504;6.300;2022-07-06T01:01:51;28.70;45.90
12477;DHT22;6303;51.504;6.300;2022-07-06T01:04:18;28.70;45.80
12477;DHT22;6303;51.504;6.300;2022-07-06T01:06:45;28.70;45.80
12477;DHT22;6303;51.504;6.300;2022-07-06T01:09:13;28.70;45.70
12477;DHT22;6303;51.504;6.300;2022-07-06T01:11:40;28.70;45.80
12477;DHT22;6303;51.504;6.300;2022-07-06T01:14:09;28.70;45.80
12477;DHT22;6303;51.504;6.300;2022-07-06T01:16:37;28.70;45.70
12477;DHT22;6303;51.504;6.300;2022-07-06T01:19:04;28.70;45.70
12477;DHT22;6303;51.504;6.300;2022-07-06T01:21:32;28.70;45.70
12477;DHT22;6303;51.504;6.300;2022-07-06T01:23:59;28.60;45.60
12477;DHT22;6303;51.504;6.300;2022-07-06T01:26:27;28.60;45.70
12477;DHT22;6303;51.504;6.300;2022-07-06T01:28:54;28.60;45.60
12477;DHT22;6303;51.504;6.300;2022-07-06T01:31:23;28.60;45.70
12477;DHT22;6303;51.504;6.300;2022-07-06T01:33:51;28.60;45.70
12477;DHT22;6303;51.504;6.300;2022-07-06T01:36:19;28.60;45.70
12477;DHT22;6303;51.504;6.300;2022-07-06T01:38:49;28.60;45.70
12477;DHT22;6303;51.504;6.300;2022-07-06T01:41:16;28.60;45.70
12477;DHT22;6303;51.504;6.300;2022-07-06T01:43:44;28.60;45.70
12477;DHT22;6303;51.504;6.300;2022-07-06T01:46:11;28.60;45.70
12477;DHT22;6303;51.504;6.300;2022-07-06T01:48:39;28.60;45.80
12477;DHT22;6303;51.504;6.300;2022-07-06T01:51:06;28.60;45.80
12477;DHT22;6303;51.504;6.300;2022-07-06T01:53:34;28.60;45.70
12477;DHT22;6303;51.504;6.300;2022-07-06T01:56:05;28.60;45.70
12477;DHT22;6303;51.504;6.300;2022-07-06T01:58:32;28.60;45.70
12477;DHT22;6303;51.504;6.300;2022-07-06T02:01:01;28.60;45.70
12477;DHT22;6303;51.504;6.300;2022-07-06T02:03:33;28.60;45.70
12477;DHT22;6303;51.504;6.300;2022-07-06T02:06:00;28.60;45.70
12477;DHT22;6303;51.504;6.300;2022-07-06T02:08:27;28.60;46.30
12477;DHT22;6303;51.504;6.300;2022-07-06T02:10:55;28.50;45.70
12477;DHT22;6303;51.504;6.300;2022-07-06T02:13:23;28.50;45.70
12477;DHT22;6303;51.504;6.300;2022-07-06T02:15:51;26.50;44.40
12477;DHT22;6303;51.504;6.300;2022-07-06T02:18:18;28.50;45.70
12477;DHT22;6303;51.504;6.300;2022-07-06T02:20:45;28.50;45.70
12477;DHT22;6303;51.504;6.300;2022-07-06T02:23:12;28.50;45.70
12477;DHT22;6303;51.504;6.300;2022-07-06T02:25:40;28.50;45.70
12477;DHT22;6303;51.504;6.300;2022-07-06T02:28:07;28.50;45.80
12477;DHT22;6303;51.504;6.300;2022-07-06T02:30:36;28.50;45.70
12477;DHT22;6303;51.504;6.300;2022-07-06T02:33:04;28.50;45.20
12477;DHT22;6303;51.504;6.300;2022-07-06T02:35:32;28.40;45.60
12477;DHT22;6303;51.504;6.300;2022-07-06T02:38:00;28.50;45.70
12477;DHT22;6303;51.504;6.300;2022-07-06T02:40:27;28.50;45.70
12477;DHT22;6303;51.504;6.300;2022-07-06T02:42:54;28.50;45.70
12477;DHT22;6303;51.504;6.300;2022-07-06T02:45:21;28.40;45.70
12477;DHT22;6303;51.504;6.300;2022-07-06T02:47:50;28.50;45.80
12477;DHT22;6303;51.504;6.300;2022-07-06T02:50:19;28.50;45.30
12477;DHT22;6303;51.504;6.300;2022-07-06T02:52:46;29.70;46.60
12477;DHT22;6303;51.504;6.300;2022-07-06T02:55:14;28.40;45.80
12477;DHT22;6303;51.504;6.300;2022-07-06T02:57:41;28.40;45.80
12477;DHT22;6303;51.504;6.300;2022-07-06T03:00:11;28.40;45.80
12477;DHT22;6303;51.504;6.300;2022-07-06T03:02:39;28.40;45.80
12477;DHT22;6303;51.504;6.300;2022-07-06T03:05:09;28.40;45.80
12477;DHT22;6303;51.504;6.300;2022-07-06T03:07:36;28.40;45.80
12477;DHT22;6303;51.504;6.300;2022-07-06T03:10:05;28.40;45.80
12477;DHT22;6303;51.504;6.300;2022-07-06T03:12:32;28.40;45.80
12477;DHT22;6303;51.504;6.300;2022-07-06T03:15:00;28.40;45.80
12477;DHT22;6303;51.504;6.300;2022-07-06T03:17:29;28.40;45.80
12477;DHT22;6303;51.504;6.300;2022-07-06T03:19:57;28.40;45.80
12477;DHT22;6303;51.504;6.300;2022-07-06T03:22:26;28.40;45.80
12477;DHT22;6303;51.504;6.300;2022-07-06T03:24:53;28.30;45.80
12477;DHT22;6303;51.504;6.300;2022-07-06T03:27:20;28.40;45.80
12477;DHT22;6303;51.504;6.300;2022-07-06T03:29:47;28.30;45.70
12477;DHT22;6303;51.504;6.300;2022-07-06T03:32:15;28.30;45.80
12477;DHT22;6303;51.504;6.300;2022-07-06T03:34:43;28.30;45.80
12477;DHT22;6303;51.504;6.300;2022-07-06T03:37:10;28.30;45.30
12477;DHT22;6303;51.504;6.300;2022-07-06T03:39:41;28.30;45.80
12477;DHT22;6303;51.504;6.300;2022-07-06T03:42:10;28.30;45.80
12477;DHT22;6303;51.504;6.300;2022-07-06T03:44:38;28.30;45.80
12477;DHT22;6303;51.504;6.300;2022-07-06T03:47:05;28.30;45.80
12477;DHT22;6303;51.504;6.300;2022-07-06T03:49:32;28.30;45.80
12477;DHT22;6303;51.504;6.300;2022-07-06T03:52:01;28.30;45.80
12477;DHT22;6303;51.504;6.300;2022-07-06T03:54:33;28.30;45.80
12477;DHT22;6303;51.504;6.300;2022-07-06T03:57:06;28.30;45.30
12477;DHT22;6303;51.504;6.300;2022-07-06T03:59:33;28.30;45.80
12477;DHT22;6303;51.504;6.300;2022-07-06T04:02:01;28.30;45.80
12477;DHT22;6303;51.504;6.300;2022-07-06T04:04:28;28.30;45.70
12477;DHT22;6303;51.504;6.300;2022-07-06T04:06:56;28.30;45.70
12477;DHT22;6303;51.504;6.300;2022-07-06T04:09:25;28.30;45.70
12477;DHT22;6303;51.504;6.300;2022-07-06T04:11:52;28.30;45.70
12477;DHT22;6303;51.504;6.300;2022-07-06T04:14:21;28.30;45.80
12477;DHT22;6303;51.504;6.300;2022-07-06T04:16:49;28.30;45.70
12477;DHT22;6303;51.504;6.300;2022-07-06T04:19:16;28.30;45.60
12477;DHT22;6303;51.504;6.300;2022-07-06T04:21:43;28.30;45.60
12477;DHT22;6303;51.504;6.300;2022-07-06T04:24:10;28.30;45.60
12477;DHT22;6303;51.504;6.300;2022-07-06T04:26:37;28.20;45.60
12477;DHT22;6303;51.504;6.300;2022-07-06T04:29:05;28.20;45.60
12477;DHT22;6303;51.504;6.300;2022-07-06T04:31:34;28.20;45.60
12477;DHT22;6303;51.504;6.300;2022-07-06T04:34:01;28.20;45.60
12477;DHT22;6303;51.504;6.300;2022-07-06T04:36:29;28.20;45.50
12477;DHT22;6303;51.504;6.300;2022-07-06T04:38:57;28.20;45.40
12477;DHT22;6303;51.504;6.300;2022-07-06T04:41:25;28.20;45.40
12477;DHT22;6303;51.504;6.300;2022-07-06T04:43:53;28.20;45.40
12477;DHT22;6303;51.504;6.300;2022-07-06T04:46:21;28.20;45.40
12477;DHT22;6303;51.504;6.300;2022-07-06T04:48:52;28.20;45.40
12477;DHT22;6303;51.504;6.300;2022-07-06T04:51:25;28.20;45.40
12477;DHT22;6303;51.504;6.300;2022-07-06T04:53:52;28.20;45.50
12477;DHT22;6303;51.504;6.300;2022-07-06T04:56:20;28.20;45.60
12477;DHT22;6303;51.504;6.300;2022-07-06T04:58:48;28.20;45.70
12477;DHT22;6303;51.504;6.300;2022-07-06T05:01:19;28.20;45.70
12477;DHT22;6303;51.504;6.300;2022-07-06T05:03:46;28.20;45.70
12477;DHT22;6303;51.504;6.300;2022-07-06T05:06:16;28.10;45.70
12477;DHT22;6303;51.504;6.300;2022-07-06T05:08:44;28.20;46.00
12477;DHT22;6303;51.504;6.300;2022-07-06T05:11:12;28.20;46.20
12477;DHT22;6303;51.504;6.300;2022-07-06T05:13:40;28.20;46.40
12477;DHT22;6303;51.504;6.300;2022-07-06T05:16:08;28.10;46.50
12477;DHT22;6303;51.504;6.300;2022-07-06T05:18:35;28.10;46.50
12477;DHT22;6303;51.504;6.300;2022-07-06T05:21:04;28.20;46.20
12477;DHT22;6303;51.504;6.300;2022-07-06T05:23:34;28.10;46.00
12477;DHT22;6303;51.504;6.300;2022-07-06T05:26:01;28.10;46.00
12477;DHT22;6303;51.504;6.300;2022-07-06T05:28:30;28.10;45.90
12477;DHT22;6303;51.504;6.300;2022-07-06T05:30:57;28.10;45.90
12477;DHT22;6303;51.504;6.300;2022-07-06T05:33:24;28.10;46.00
12477;DHT22;6303;51.504;6.300;2022-07-06T05:35:51;28.10;46.00
12477;DHT22;6303;51.504;6.300;2022-07-06T05:38:24;28.10;45.90
12477;DHT22;6303;51.504;6.300;2022-07-06T05:40:53;28.10;45.90
12477;DHT22;6303;51.504;6.300;2022-07-06T05:43:21;28.10;46.00
12477;DHT22;6303;51.504;6.300;2022-07-06T05:45:48;28.10;46.10
12477;DHT22;6303;51.504;6.300;2022-07-06T05:48:18;28.10;46.10
12477;DHT22;6303;51.504;6.300;2022-07-06T05:51:03;28.00;46.00
12477;DHT22;6303;51.504;6.300;2022-07-06T05:53:30;28.00;45.90
12477;DHT22;6303;51.504;6.300;2022-07-06T05:55:59;28.00;45.90
12477;DHT22;6303;51.504;6.300;2022-07-06T05:58:29;28.00;45.90
12477;DHT22;6303;51.504;6.300;2022-07-06T06:00:58;27.90;46.10
12477;DHT22;6303;51.504;6.300;2022-07-06T06:03:25;27.90;46.10
12477;DHT22;6303;51.504;6.300;2022-07-06T06:05:52;27.90;45.90
12477;DHT22;6303;51.504;6.300;2022-07-06T06:08:22;27.90;45.70
12477;DHT22;6303;51.504;6.300;2022-07-06T06:10:51;28.00;45.80
12477;DHT22;6303;51.504;6.300;2022-07-06T06:13:22;28.00;45.70
12477;DHT22;6303;51.504;6.300;2022-07-06T06:15:51;28.00;45.60
12477;DHT22;6303;51.504;6.300;2022-07-06T06:18:18;28.00;45.60
12477;DHT22;6303;51.504;6.300;2022-07-06T06:20:46;27.90;45.70
12477;DHT22;6303;51.504;6.300;2022-07-06T06:23:13;27.90;45.70
12477;DHT22;6303;51.504;6.300;2022-07-06T06:25:40;28.00;45.80
12477;DHT22;6303;51.504;6.300;2022-07-06T06:28:08;28.00;45.80
12477;DHT22;6303;51.504;6.300;2022-07-06T06:30:37;28.00;45.90
12477;DHT22;6303;51.504;6.300;2022-07-06T06:33:06;28.00;46.00
12477;DHT22;6303;51.504;6.300;2022-07-06T06:35:34;28.00;46.10
12477;DHT22;6303;51.504;6.300;2022-07-06T06:38:01;28.00;46.20
12477;DHT22;6303;51.504;6.300;2022-07-06T06:40:28;28.00;46.20
12477;DHT22;6303;51.504;6.300;2022-07-06T06:42:55;28.00;46.10
12477;DHT22;6303;51.504;6.300;2022-07-06T06:45:23;28.00;46.10
12477;DHT22;6303;51.504;6.300;2022-07-06T06:47:52;28.10;46.20
12477;DHT22;6303;51.504;6.300;2022-07-06T06:50:19;28.10;46.20
12477;DHT22;6303;51.504;6.300;2022-07-06T06:52:48;28.10;46.20
12477;DHT22;6303;51.504;6.300;2022-07-06T06:55:15;28.10;46.30
12477;DHT22;6303;51.504;6.300;2022-07-06T06:57:42;28.10;46.40
12477;DHT22;6303;51.504;6.300;2022-07-06T07:00:10;28.10;46.50
12477;DHT22;6303;51.504;6.300;2022-07-06T07:02:37;28.10;46.70
12477;DHT22;6303;51.504;6.300;2022-07-06T07:05:07;28.20;46.80
12477;DHT22;6303;51.504;6.300;2022-07-06T07:07:34;28.40;46.90
12477;DHT22;6303;51.504;6.300;2022-07-06T07:10:03;28.40;46.90
12477;DHT22;6303;51.504;6.300;2022-07-06T07:12:30;28.50;47.00
12477;DHT22;6303;51.504;6.300;2022-07-06T07:14:58;28.60;47.00
12477;DHT22;6303;51.504;6.300;2022-07-06T07:17:25;28.60;47.00
12477;DHT22;6303;51.504;6.300;2022-07-06T07:19:52;28.70;47.00
12477;DHT22;6303;51.504;6.300;2022-07-06T07:22:23;28.70;47.00
12477;DHT22;6303;51.504;6.300;2022-07-06T07:24:51;28.80;47.00
12477;DHT22;6303;51.504;6.300;2022-07-06T07:27:18;28.90;47.00
12477;DHT22;6303;51.504;6.300;2022-07-06T07:29:45;29.00;47.00
12477;DHT22;6303;51.504;6.300;2022-07-06T07:32:12;29.00;47.00
12477;DHT22;6303;51.504;6.300;2022-07-06T07:34:39;29.00;46.90
12477;DHT22;6303;51.504;6.300;2022-07-06T07:37:06;27.80;45.40
12477;DHT22;6303;51.504;6.300;2022-07-06T07:39:35;29.20;46.80
12477;DHT22;6303;51.504;6.300;2022-07-06T07:42:02;29.20;46.70
12477;DHT22;6303;51.504;6.300;2022-07-06T07:44:29;29.20;46.70
12477;DHT22;6303;51.504;6.300;2022-07-06T07:46:56;29.40;46.60
12477;DHT22;6303;51.504;6.300;2022-07-06T07:49:23;29.40;47.20
12477;DHT22;6303;51.504;6.300;2022-07-06T07:51:50;29.50;46.40
12477;DHT22;6303;51.504;6.300;2022-07-06T07:54:18;29.50;46.20
12477;DHT22;6303;51.504;6.300;2022-07-06T07:56:46;29.50;46.20
12477;DHT22;6303;51.504;6.300;2022-07-06T07:59:13;29.60;46.70
12477;DHT22;6303;51.504;6.300;2022-07-06T08:01:41;29.60;46.00
12477;DHT22;6303;51.504;6.300;2022-07-06T08:04:08;29.70;46.00
12477;DHT22;6303;51.504;6.300;2022-07-06T08:06:35;29.70;45.90
12477;DHT22;6303;51.504;6.300;2022-07-06T08:09:02;29.70;45.80
12477;DHT22;6303;51.504;6.300;2022-07-06T08:11:30;29.80;45.90
12477;DHT22;6303;51.504;6.300;2022-07-06T08:13:59;29.80;45.90
12477;DHT22;6303;51.504;6.300;2022-07-06T08:16:26;29.90;45.90
12477;DHT22;6303;51.504;6.300;2022-07-06T08:18:53;29.90;45.90
12477;DHT22;6303;51.504;6.300;2022-07-06T08:21:20;30.50;46.30
12477;DHT22;6303;51.504;6.300;2022-07-06T08:23:47;29.90;46.00
12477;DHT22;6303;51.504;6.300;2022-07-06T08:26:15;30.00;45.90
12477;DHT22;6303;51.504;6.300;2022-07-06T08:28:42;30.00;45.80
12477;DHT22;6303;51.504;6.300;2022-07-06T08:31:10;30.10;45.60
12477;DHT22;6303;51.504;6.300;2022-07-06T08:33:37;30.20;45.40
12477;DHT22;6303;51.504;6.300;2022-07-06T08:36:05;30.20;45.10
12477;DHT22;6303;51.504;6.300;2022-07-06T08:38:32;30.00;42.90
12477;DHT22;6303;51.504;6.300;2022-07-06T08:40:59;29.80;42.70
12477;DHT22;6303;51.504;6.300;2022-07-06T08:43:26;29.70;42.90
12477;DHT22;6303;51.504;6.300;2022-07-06T08:45:54;29.50;43.00
12477;DHT22;6303;51.504;6.300;2022-07-06T08:48:24;29.40;42.90
12477;DHT22;6303;51.504;6.300;2022-07-06T08:50:52;29.30;43.00
12477;DHT22;6303;51.504;6.300;2022-07-06T08:53:20;29.20;43.10
12477;DHT22;6303;51.504;6.300;2022-07-06T08:55:48;29.10;42.90
12477;DHT22;6303;51.504;6.300;2022-07-06T08:58:16;29.00;42.60
12477;DHT22;6303;51.504;6.300;2022-07-06T09:00:43;29.00;42.70
12477;DHT22;6303;51.504;6.300;2022-07-06T09:03:12;28.90;43.40
12477;DHT22;6303;51.504;6.300;2022-07-06T09:05:46;28.90;43.10
12477;DHT22;6303;51.504;6.300;2022-07-06T09:08:13;29.00;43.90
12477;DHT22;6303;51.504;6.300;2022-07-06T09:10:40;29.00;43.10
12477;DHT22;6303;51.504;6.300;2022-07-06T09:13:08;29.00;42.80
12477;DHT22;6303;51.504;6.300;2022-07-06T09:15:36;29.00;42.60
12477;DHT22;6303;51.504;6.300;2022-07-06T09:18:04;29.00;42.20
12477;DHT22;6303;51.504;6.300;2022-07-06T09:20:32;29.10;42.10
12477;DHT22;6303;51.504;6.300;2022-07-06T09:23:01;29.00;42.10
12477;DHT22;6303;51.504;6.300;2022-07-06T09:25:29;28.90;42.40
12477;DHT22;6303;51.504;6.300;2022-07-06T09:27:57;28.80;42.70
12477;DHT22;6303;51.504;6.300;2022-07-06T09:30:26;28.70;42.60
12477;DHT22;6303;51.504;6.300;2022-07-06T09:32:56;28.70;42.60
12477;DHT22;6303;51.504;6.300;2022-07-06T09:35:24;28.70;42.50
12477;DHT22;6303;51.504;6.300;2022-07-06T09:38:03;28.70;42.50
12477;DHT22;6303;51.504;6.300;2022-07-06T09:40:34;28.70;42.50
12477;DHT22;6303;51.504;6.300;2022-07-06T09:43:09;28.70;42.40
12477;DHT22;6303;51.504;6.300;2022-07-06T09:45:38;28.70;42.40
12477;DHT22;6303;51.504;6.300;2022-07-06T09:48:07;28.80;42.40
12477;DHT22;6303;51.504;6.300;2022-07-06T09:50:42;28.80;42.00
12477;DHT22;6303;51.504;6.300;2022-07-06T09:53:12;28.90;41.80
12477;DHT22;6303;51.504;6.300;2022-07-06T09:55:43;28.90;42.00
12477;DHT22;6303;51.504;6.300;2022-07-06T09:58:11;28.90;42.20
12477;DHT22;6303;51.504;6.300;2022-07-06T10:00:38;28.90;42.30
12477;DHT22;6303;51.504;6.300;2022-07-06T10:03:06;28.80;42.20
12477;DHT22;6303;51.504;6.300;2022-07-06T10:05:36;28.80;42.40
12477;DHT22;6303;51.504;6.300;2022-07-06T10:08:04;28.80;42.50
12477;DHT22;6303;51.504;6.300;2022-07-06T10:10:33;28.70;42.50
12477;DHT22;6303;51.504;6.300;2022-07-06T10:13:02;28.70;42.10
12477;DHT22;6303;51.504;6.300;2022-07-06T10:15:32;28.80;42.10
12477;DHT22;6303;51.504;6.300;2022-07-06T10:18:01;28.80;42.30
12477;DHT22;6303;51.504;6.300;2022-07-06T10:20:30;28.80;42.50
12477;DHT22;6303;51.504;6.300;2022-07-06T10:22:59;28.80;42.60
12477;DHT22;6303;51.504;6.300;2022-07-06T10:25:27;28.80;42.70
12477;DHT22;6303;51.504;6.300;2022-07-06T10:27:56;28.80;42.70
12477;DHT22;6303;51.504;6.300;2022-07-06T10:30:24;28.90;42.60
12477;DHT22;6303;51.504;6.300;2022-07-06T10:32:52;28.90;42.60
12477;DHT22;6303;51.504;6.300;2022-07-06T10:35:21;28.90;42.50
12477;DHT22;6303;51.504;6.300;2022-07-06T10:38:04;28.90;42.40
12477;DHT22;6303;51.504;6.300;2022-07-06T10:40:32;28.90;42.30
12477;DHT22;6303;51.504;6.300;2022-07-06T10:43:18;28.90;42.30
12477;DHT22;6303;51.504;6.300;2022-07-06T10:45:52;29.00;42.30
12477;DHT22;6303;51.504;6.300;2022-07-06T10:48:21;29.00;42.30
12477;DHT22;6303;51.504;6.300;2022-07-06T10:50:51;29.00;42.20
12477;DHT22;6303;51.504;6.300;2022-07-06T10:53:22;29.10;42.20
12477;DHT22;6303;51.504;6.300;2022-07-06T10:55:51;29.10;41.60
12477;DHT22;6303;51.504;6.300;2022-07-06T10:58:35;29.10;41.20
12477;DHT22;6303;51.504;6.300;2022-07-06T11:01:03;29.10;42.10
12477;DHT22;6303;51.504;6.300;2022-07-06T11:03:36;29.00;42.10
12477;DHT22;6303;51.504;6.300;2022-07-06T11:06:06;29.00;42.30
12477;DHT22;6303;51.504;6.300;2022-07-06T11:08:51;29.00;42.50
12477;DHT22;6303;51.504;6.300;2022-07-06T11:11:20;28.90;42.40
12477;DHT22;6303;51.504;6.300;2022-07-06T11:13:54;28.90;42.50
12477;DHT22;6303;51.504;6.300;2022-07-06T11:16:23;28.90;42.50
12477;DHT22;6303;51.504;6.300;2022-07-06T11:19:01;28.80;42.30
12477;DHT22;6303;51.504;6.300;2022-07-06T11:21:46;28.80;42.10
12477;DHT22;6303;51.504;6.300;2022-07-06T11:24:15;28.80;42.00
12477;DHT22;6303;51.504;6.300;2022-07-06T11:26:45;28.80;41.90
12477;DHT22;6303;51.504;6.300;2022-07-06T11:29:14;28.90;42.50
12477;DHT22;6303;51.504;6.300;2022-07-06T11:31:44;28.90;41.80
12477;DHT22;6303;51.504;6.300;2022-07-06T11:34:13;28.90;41.60
12477;DHT22;6303;51.504;6.300;2022-07-06T11:36:44;28.80;41.50
12477;DHT22;6303;51.504;6.300;2022-07-06T11:39:11;28.70;41.60
12477;DHT22;6303;51.504;6.300;2022-07-06T11:41:38;28.60;41.50
12477;DHT22;6303;51.504;6.300;2022-07-06T11:44:05;28.60;41.60
12477;DHT22;6303;51.504;6.300;2022-07-06T11:46:35;28.50;41.60
12477;DHT22;6303;51.504;6.300;2022-07-06T11:49:04;28.50;41.60
12477;DHT22;6303;51.504;6.300;2022-07-06T11:51:33;28.60;41.40
12477;DHT22;6303;51.504;6.300;2022-07-06T11:54:01;28.60;41.60
12477;DHT22;6303;51.504;6.300;2022-07-06T11:56:29;28.60;41.60
12477;DHT22;6303;51.504;6.300;2022-07-06T11:58:58;28.70;42.00
12477;DHT22;6303;51.504;6.300;2022-07-06T12:01:27;28.90;42.30
12477;DHT22;6303;51.504;6.300;2022-07-06T12:03:59;29.00;42.50
12477;DHT22;6303;51.504;6.300;2022-07-06T12:06:28;29.20;42.60
12477;DHT22;6303;51.504;6.300;2022-07-06T12:08:59;29.30;42.60
12477;DHT22;6303;51.504;6.300;2022-07-06T12:11:31;29.40;42.70
12477;DHT22;6303;51.504;6.300;2022-07-06T12:14:00;29.50;42.70
12477;DHT22;6303;51.504;6.300;2022-07-06T12:16:32;29.60;42.60
12477;DHT22;6303;51.504;6.300;2022-07-06T12:19:03;29.70;42.70
12477;DHT22;6303;51.504;6.300;2022-07-06T12:21:31;29.70;42.70
12477;DHT22;6303;51.504;6.300;2022-07-06T12:23:59;29.80;42.70
12477;DHT22;6303;51.504;6.300;2022-07-06T12:26:27;29.90;42.70
12477;DHT22;6303;51.504;6.300;2022-07-06T12:29:03;29.90;42.70
12477;DHT22;6303;51.504;6.300;2022-07-06T12:31:33;30.00;42.80
12477;DHT22;6303;51.504;6.300;2022-07-06T12:34:02;30.00;42.60
12477;DHT22;6303;51.504;6.300;2022-07-06T12:36:29;30.10;42.70
12477;DHT22;6303;51.504;6.300;2022-07-06T12:38:57;30.10;42.80
12477;DHT22;6303;51.504;6.300;2022-07-06T12:41:34;29.10;42.00
12477;DHT22;6303;51.504;6.300;2022-07-06T12:44:04;30.10;42.30
12477;DHT22;6303;51.504;6.300;2022-07-06T12:46:32;30.20;42.50
12477;DHT22;6303;51.504;6.300;2022-07-06T12:49:03;30.20;42.60
12477;DHT22;6303;51.504;6.300;2022-07-06T12:51:49;30.30;42.80
12477;DHT22;6303;51.504;6.300;2022-07-06T12:54:17;30.30;42.80
12477;DHT22;6303;51.504;6.300;2022-07-06T12:57:15;30.40;42.80
12477;DHT22;6303;51.504;6.300;2022-07-06T12:59:45;30.40;42.70
12477;DHT22;6303;51.504;6.300;2022-07-06T13:02:20;30.40;42.50
12477;DHT22;6303;51.504;6.300;2022-07-06T13:04:57;30.50;42.40
12477;DHT22;6303;51.504;6.300;2022-07-06T13:07:24;30.50;42.40
12477;DHT22;6303;51.504;6.300;2022-07-06T13:09:52;30.50;42.40
12477;DHT22;6303;51.504;6.300;2022-07-06T13:12:20;30.50;42.30
12477;DHT22;6303;51.504;6.300;2022-07-06T13:14:47;30.50;42.30
12477;DHT22;6303;51.504;6.300;2022-07-06T13:17:15;30.50;42.20
12477;DHT22;6303;51.504;6.300;2022-07-06T13:19:42;30.60;42.20
12477;DHT22;6303;51.504;6.300;2022-07-06T13:22:10;30.60;42.20
12477;DHT22;6303;51.504;6.300;2022-07-06T13:24:38;30.60;42.40
12477;DHT22;6303;51.504;6.300;2022-07-06T13:27:05;30.60;42.60
12477;DHT22;6303;51.504;6.300;2022-07-06T13:29:32;30.70;42.80
12477;DHT22;6303;51.504;6.300;2022-07-06T13:32:00;30.70;42.60
12477;DHT22;6303;51.504;6.300;2022-07-06T13:34:27;30.70;43.10
12477;DHT22;6303;51.504;6.300;2022-07-06T13:36:54;30.70;43.20
12477;DHT22;6303;51.504;6.300;2022-07-06T13:39:23;30.80;43.10
12477;DHT22;6303;51.504;6.300;2022-07-06T13:41:53;30.80;43.10
12477;DHT22;6303;51.504;6.300;2022-07-06T13:44:21;30.80;43.00
12477;DHT22;6303;51.504;6.300;2022-07-06T13:46:49;30.80;42.80
12477;DHT22;6303;51.504;6.300;2022-07-06T13:49:17;30.80;42.80
12477;DHT22;6303;51.504;6.300;2022-07-06T13:51:44;30.80;42.70
12477;DHT22;6303;51.504;6.300;2022-07-06T13:54:11;30.80;43.00
12477;DHT22;6303;51.504;6.300;2022-07-06T13:56:40;30.80;42.80
12477;DHT22;6303;51.504;6.300;2022-07-06T13:59:07;30.80;42.70
12477;DHT22;6303;51.504;6.300;2022-07-06T14:01:34;30.80;42.50
12477;DHT22;6303;51.504;6.300;2022-07-06T14:04:01;30.90;43.10
12477;DHT22;6303;51.504;6.300;2022-07-06T14:06:28;30.90;42.30
12477;DHT22;6303;51.504;6.300;2022-07-06T14:08:55;30.90;42.10
12477;DHT22;6303;51.504;6.300;2022-07-06T14:11:22;30.90;42.00
12477;DHT22;6303;51.504;6.300;2022-07-06T14:13:52;30.90;42.10
12477;DHT22;6303;51.504;6.300;2022-07-06T14:16:19;30.90;42.10
12477;DHT22;6303;51.504;6.300;2022-07-06T14:18:48;30.90;42.20
12477;DHT22;6303;51.504;6.300;2022-07-06T14:21:15;30.90;42.00
12477;DHT22;6303;51.504;6.300;2022-07-06T14:23:42;30.80;40.40
12477;DHT22;6303;51.504;6.300;2022-07-06T14:26:09;30.70;39.90
12477;DHT22;6303;51.504;6.300;2022-07-06T14:28:36;30.50;39.60
12477;DHT22;6303;51.504;6.300;2022-07-06T14:31:05;30.50;39.60
12477;DHT22;6303;51.504;6.300;2022-07-06T14:33:32;30.40;39.60
12477;DHT22;6303;51.504;6.300;2022-07-06T14:35:59;30.30;39.90
12477;DHT22;6303;51.504;6.300;2022-07-06T14:38:26;30.30;39.90
12477;DHT22;6303;51.504;6.300;2022-07-06T14:40:54;30.20;40.00
12477;DHT22;6303;51.504;6.300;2022-07-06T14:43:21;30.20;40.00
12477;DHT22;6303;51.504;6.300;2022-07-06T14:45:48;30.20;40.00
12477;DHT22;6303;51.504;6.300;2022-07-06T14:48:17;30.10;39.90
12477;DHT22;6303;51.504;6.300;2022-07-06T14:50:44;30.10;39.70
12477;DHT22;6303;51.504;6.300;2022-07-06T14:53:11;30.10;39.60
12477;DHT22;6303;51.504;6.300;2022-07-06T14:55:38;30.10;39.80
12477;DHT22;6303;51.504;6.300;2022-07-06T14:58:05;30.00;40.00
12477;DHT22;6303;51.504;6.300;2022-07-06T15:00:32;30.00;40.10
12477;DHT22;6303;51.504;6.300;2022-07-06T15:03:00;30.00;40.20
12477;DHT22;6303;51.504;6.300;2022-07-06T15:05:28;30.10;40.10
12477;DHT22;6303;51.504;6.300;2022-07-06T15:07:55;30.10;40.10
12477;DHT22;6303;51.504;6.300;2022-07-06T15:10:23;30.10;40.20
12477;DHT22;6303;51.504;6.300;2022-07-06T15:12:50;30.10;40.10
12477;DHT22;6303;51.504;6.300;2022-07-06T15:15:17;30.00;40.30
12477;DHT22;6303;51.504;6.300;2022-07-06T15:17:44;30.00;40.30
12477;DHT22;6303;51.504;6.300;2022-07-06T15:20:12;29.90;40.30
12477;DHT22;6303;51.504;6.300;2022-07-06T15:22:40;29.90;40.10
12477;DHT22;6303;51.504;6.300;2022-07-06T15:25:09;29.90;40.00
12477;DHT22;6303;51.504;6.300;2022-07-06T15:27:36;29.80;40.30
12477;DHT22;6303;51.504;6.300;2022-07-06T15:30:04;29.90;41.00
12477;DHT22;6303;51.504;6.300;2022-07-06T15:32:31;29.90;40.40
12477;DHT22;6303;51.504;6.300;2022-07-06T15:34:58;29.80;40.40
12477;DHT22;6303;51.504;6.300;2022-07-06T15:37:25;29.80;40.30
12477;DHT22;6303;51.504;6.300;2022-07-06T15:39:53;29.80;40.60
12477;DHT22;6303;51.504;6.300;2022-07-06T15:42:21;32.80;42.50
12477;DHT22;6303;51.504;6.300;2022-07-06T15:44:48;29.90;40.60
12477;DHT22;6303;51.504;6.300;2022-07-06T15:49:53;29.80;40.60
12477;DHT22;6303;51.504;6.300;2022-07-06T15:52:20;29.80;40.30
12477;DHT22;6303;51.504;6.300;2022-07-06T15:54:47;29.80;40.10